AerodromSadržaj METAR izveštaja
LYBEMETAR LYBE 061530Z 10016KT CAVOK 16/M09 Q1030 NOSIG=
LYBTMETAR LYBT 061530Z 08014KT 040V110 CAVOK 16/M10 Q1030 NOSIG=
LYKVMETAR LYKV 061530Z 08012KT 050V130 CAVOK 15/M09 Q1029 NOSIG=
LYNIMETAR LYNI 061530Z 05015KT 010V070 CAVOK 15/M10 Q1029 NOSIG=
LYVRMETAR LYVR 061530Z 12007KT 080V210 CAVOK 18/M10 Q1031 NOSIG=
LYUZMETAR LYUZ 061530Z AUTO 09008KT 040V130 CAVOK 10/M08 Q1028=
LYPGMETAR LYPG 061530Z 19005KT 160V220 CAVOK 20/M06 Q1023 NOSIG=
LYTVMETAR LYTV 061530Z 31006KT 280V340 CAVOK 18/07 Q1023 NOSIG=

Podaci učitani u: 2020-04-06 15:37:37 UTC

METAR, TAF, AIRMET, GAMET, SIGMET

Važna napomena: MET infоrmаciје nа оvim web strаnicаmа imајu infоrmаtivni kаrаktеr, nаmenjene su isključivo vаzduhоplоvnim kоrisnicima, nе smејu sе kоristiti zа bilо kоје kоmеrciјаlnе svrhе, i nе zаmеnjuјu dоkumеntаciјu zа lеt.